createdAt,value
2023-01-18T00:01:20.398Z,5.17
2023-01-18T00:03:51.247Z,5.20
2023-01-18T00:06:18.899Z,4.63
2023-01-18T00:08:46.671Z,4.83
2023-01-18T00:11:17.054Z,3.83
2023-01-18T00:13:46.012Z,4.40
2023-01-18T00:16:22.909Z,2.73
2023-01-18T00:18:53.667Z,2.80
2023-01-18T00:21:22.594Z,2.80
2023-01-18T00:23:51.814Z,2.40
2023-01-18T00:26:23.122Z,2.30
2023-01-18T00:28:50.819Z,2.27
2023-01-18T00:31:21.199Z,1.67
2023-01-18T00:33:50.762Z,1.33
2023-01-18T00:36:20.479Z,1.60
2023-01-18T00:38:51.740Z,1.13
2023-01-18T00:41:21.874Z,0.80
2023-01-18T00:43:51.648Z,0.80
2023-01-18T00:46:25.300Z,0.70
2023-01-18T00:48:53.161Z,0.50
2023-01-18T00:51:24.715Z,0.57
2023-01-18T00:53:52.496Z,0.43
2023-01-18T00:56:23.363Z,0.63
2023-01-18T00:58:51.892Z,0.50
2023-01-18T01:01:21.038Z,0.90
2023-01-18T01:04:11.571Z,0.60
2023-01-18T01:06:44.312Z,0.70
2023-01-18T01:09:23.021Z,0.50
2023-01-18T01:12:10.940Z,0.60
2023-01-18T01:15:02.525Z,0.50
2023-01-18T01:17:50.568Z,0.50
2023-01-18T01:20:37.238Z,0.67
2023-01-18T01:23:36.423Z,0.60
2023-01-18T01:26:09.739Z,0.60
2023-01-18T01:28:51.469Z,0.70
2023-01-18T01:31:20.297Z,0.70
2023-01-18T01:33:50.598Z,0.53
2023-01-18T01:36:21.156Z,0.50
2023-01-18T01:38:49.679Z,0.60
2023-01-18T01:41:26.678Z,0.50
2023-01-18T01:43:58.345Z,0.80
2023-01-18T01:47:06.325Z,0.40
2023-01-18T01:49:39.994Z,0.47
2023-01-18T01:52:09.633Z,0.70
2023-01-18T01:54:42.263Z,0.80
2023-01-18T01:57:15.677Z,0.80
2023-01-18T02:00:06.170Z,0.60
2023-01-18T02:02:35.655Z,0.50
2023-01-18T02:05:07.985Z,0.83
2023-01-18T02:07:36.676Z,0.30
2023-01-18T02:10:06.465Z,0.53
2023-01-18T02:12:36.494Z,0.30
2023-01-18T02:15:06.657Z,0.30
2023-01-18T02:18:15.888Z,0.60
2023-01-18T02:20:54.162Z,0.10
2023-01-18T02:23:35.486Z,0.10
2023-01-18T02:26:24.503Z,0.20
2023-01-18T02:29:08.165Z,0.23
2023-01-18T02:31:45.714Z,0.30
2023-01-18T02:34:34.331Z,0.10
2023-01-18T02:37:33.369Z,0.37
2023-01-18T02:40:12.102Z,0.10
2023-01-18T02:43:01.340Z,0.37
2023-01-18T02:46:06.280Z,0.20
2023-01-18T02:48:37.538Z,0.20
2023-01-18T02:51:06.279Z,0.27
2023-01-18T02:53:41.702Z,0.10
2023-01-18T02:56:23.373Z,0.20
2023-01-18T02:59:05.109Z,0.20
2023-01-18T03:01:40.910Z,0.10
2023-01-18T03:04:26.243Z,0.20
2023-01-18T03:07:02.616Z,0.20
2023-01-18T03:09:31.307Z,0.20
2023-01-18T03:12:46.175Z,0.10
2023-01-18T03:15:33.382Z,0.10
2023-01-18T03:18:10.543Z,0.20
2023-01-18T03:20:42.935Z,0.20
2023-01-18T03:23:38.542Z,0.30
2023-01-18T03:26:11.994Z,0.20
2023-01-18T03:29:01.954Z,0.20
2023-01-18T03:32:11.034Z,0.20
2023-01-18T03:35:08.127Z,0.20
2023-01-18T03:37:40.052Z,0.37
2023-01-18T03:40:12.741Z,0.20
2023-01-18T03:42:48.482Z,0.30
2023-01-18T03:45:27.515Z,0.13
2023-01-18T03:47:55.381Z,0.63
2023-01-18T03:50:31.592Z,0.60
2023-01-18T03:53:03.695Z,0.30
2023-01-18T03:55:43.013Z,0.50
2023-01-18T03:58:12.776Z,0.50
2023-01-18T04:00:40.940Z,0.50
2023-01-18T04:03:21.904Z,0.70
2023-01-18T04:05:50.593Z,0.43
2023-01-18T04:08:21.960Z,0.60
2023-01-18T04:10:51.423Z,0.60
2023-01-18T04:13:20.544Z,0.40
2023-01-18T04:15:49.800Z,0.30
2023-01-18T04:18:16.814Z,0.40
2023-01-18T04:20:43.828Z,0.57
2023-01-18T04:23:11.521Z,0.40
2023-01-18T04:25:40.929Z,0.70
2023-01-18T04:28:09.326Z,0.53
2023-01-18T04:30:37.561Z,0.53
2023-01-18T04:33:04.494Z,0.40
2023-01-18T04:35:32.170Z,0.60
2023-01-18T04:38:00.631Z,0.47
2023-01-18T04:40:29.294Z,0.40
2023-01-18T04:42:56.680Z,0.90
2023-01-18T04:45:26.081Z,0.50
2023-01-18T04:47:55.094Z,1.30
2023-01-18T04:50:24.537Z,0.70
2023-01-18T04:52:52.965Z,0.50
2023-01-18T04:55:20.752Z,0.60
2023-01-18T04:57:55.434Z,0.63
2023-01-18T05:00:24.223Z,1.00
2023-01-18T05:02:51.899Z,0.70
2023-01-18T05:05:20.250Z,1.50
2023-01-18T05:07:48.635Z,0.60
2023-01-18T05:10:19.532Z,0.57
2023-01-18T05:12:47.894Z,0.63
2023-01-18T05:15:15.695Z,0.40
2023-01-18T05:17:44.438Z,0.60
2023-01-18T05:20:13.716Z,0.60
2023-01-18T05:22:40.594Z,0.50
2023-01-18T05:25:09.416Z,0.57
2023-01-18T05:27:37.411Z,0.70
2023-01-18T05:30:06.893Z,1.00
2023-01-18T05:32:35.649Z,0.50
2023-01-18T05:35:05.876Z,0.40
2023-01-18T05:37:33.693Z,1.17
2023-01-18T05:40:02.120Z,0.37
2023-01-18T05:42:30.422Z,0.40
2023-01-18T05:44:58.171Z,0.60
2023-01-18T05:47:27.779Z,0.30
2023-01-18T05:49:57.916Z,0.40
2023-01-18T05:52:25.492Z,0.30
2023-01-18T05:54:53.123Z,0.50
2023-01-18T05:57:21.420Z,0.50
2023-01-18T05:59:49.604Z,0.57
2023-01-18T06:02:18.673Z,0.30
2023-01-18T06:04:47.664Z,0.40
2023-01-18T06:07:15.107Z,0.50
2023-01-18T06:09:43.025Z,0.70
2023-01-18T06:12:12.250Z,0.40
2023-01-18T06:14:39.902Z,0.47
2023-01-18T06:17:08.964Z,0.57
2023-01-18T06:19:37.300Z,0.40
2023-01-18T06:22:06.248Z,0.40
2023-01-18T06:24:34.593Z,0.47
2023-01-18T06:27:04.114Z,0.50
2023-01-18T06:29:31.104Z,0.30
2023-01-18T06:31:58.003Z,0.40
2023-01-18T06:34:28.935Z,0.30
2023-01-18T06:36:57.780Z,0.63
2023-01-18T06:39:26.842Z,0.33
2023-01-18T06:41:56.202Z,0.50
2023-01-18T06:44:26.203Z,0.80
2023-01-18T06:46:54.558Z,0.30
2023-01-18T06:49:23.033Z,0.43
2023-01-18T06:51:50.735Z,0.33
2023-01-18T06:54:18.338Z,0.30
2023-01-18T06:56:45.606Z,0.30
2023-01-18T06:59:13.347Z,0.40
2023-01-18T07:01:42.518Z,0.70
2023-01-18T07:04:11.137Z,0.80
2023-01-18T07:06:38.415Z,0.70
2023-01-18T07:09:08.129Z,0.50
2023-01-18T07:11:37.225Z,0.30
2023-01-18T07:14:04.857Z,0.60
2023-01-18T07:16:32.627Z,0.80
2023-01-18T07:19:01.770Z,0.87
2023-01-18T07:21:29.841Z,1.10
2023-01-18T07:23:58.228Z,0.60
2023-01-18T07:26:29.432Z,0.90
2023-01-18T07:28:57.043Z,1.27
2023-01-18T07:31:25.205Z,1.00
2023-01-18T07:33:53.345Z,1.00
2023-01-18T07:36:22.225Z,1.30
2023-01-18T07:38:50.944Z,1.30
2023-01-18T07:41:17.921Z,1.73
2023-01-18T07:43:46.483Z,1.10
2023-01-18T07:46:20.610Z,1.00
2023-01-18T07:48:49.457Z,1.00
2023-01-18T07:51:17.102Z,0.70
2023-01-18T07:53:45.719Z,0.87
2023-01-18T07:56:16.175Z,0.73
2023-01-18T07:58:43.954Z,0.73
2023-01-18T08:01:14.377Z,0.70
2023-01-18T08:03:43.942Z,0.80
2023-01-18T08:06:18.477Z,0.70
2023-01-18T08:08:46.434Z,0.60
2023-01-18T08:11:14.283Z,0.60
2023-01-18T08:13:41.910Z,0.90
2023-01-18T08:16:11.973Z,0.80
2023-01-18T08:18:40.311Z,1.00
2023-01-18T08:21:11.205Z,0.60
2023-01-18T08:23:40.469Z,1.17
2023-01-18T08:26:09.802Z,0.83
2023-01-18T08:28:37.559Z,0.93
2023-01-18T08:31:14.356Z,0.83
2023-01-18T08:33:45.865Z,0.63
2023-01-18T08:36:18.821Z,1.37
2023-01-18T08:38:51.089Z,0.50
2023-01-18T08:41:20.724Z,0.80
2023-01-18T08:43:51.076Z,0.80
2023-01-18T08:46:18.616Z,0.90
2023-01-18T08:48:45.717Z,0.43
2023-01-18T08:51:14.108Z,0.57
2023-01-18T08:53:42.535Z,1.47
2023-01-18T08:56:10.159Z,0.70
2023-01-18T08:58:37.814Z,0.90
2023-01-18T09:01:09.951Z,0.70
2023-01-18T09:03:38.482Z,0.70
2023-01-18T09:06:12.787Z,1.57
2023-01-18T09:08:42.118Z,0.77
2023-01-18T09:11:10.976Z,1.20
2023-01-18T09:13:58.443Z,1.17
2023-01-18T09:16:27.600Z,1.30
2023-01-18T09:18:56.384Z,0.70
2023-01-18T09:21:25.042Z,1.00
2023-01-18T09:23:52.683Z,0.87
2023-01-18T09:26:21.198Z,1.20
2023-01-18T09:28:52.316Z,1.00
2023-01-18T09:31:22.440Z,1.03
2023-01-18T09:33:54.011Z,1.17
2023-01-18T09:36:26.555Z,0.93
2023-01-18T09:38:56.035Z,0.53
2023-01-18T09:41:49.596Z,1.03
2023-01-18T09:44:40.521Z,1.00
2023-01-18T09:47:20.732Z,1.43
2023-01-18T09:49:58.801Z,0.93
2023-01-18T09:52:26.370Z,0.83
2023-01-18T09:55:21.109Z,0.93
2023-01-18T09:58:00.635Z,0.60
2023-01-18T10:00:33.892Z,1.03
2023-01-18T10:03:10.215Z,1.00
2023-01-18T10:06:08.612Z,0.67
2023-01-18T10:08:55.380Z,1.20
2023-01-18T10:11:37.821Z,1.23
2023-01-18T10:14:15.273Z,0.97
2023-01-18T10:16:45.261Z,1.00
2023-01-18T10:19:20.424Z,1.73
2023-01-18T10:21:55.364Z,1.03
2023-01-18T10:24:31.280Z,1.47
2023-01-18T10:27:40.675Z,0.83
2023-01-18T10:30:28.991Z,1.30
2023-01-18T10:33:00.694Z,1.10
2023-01-18T10:35:39.522Z,1.13
2023-01-18T10:38:13.010Z,0.90
2023-01-18T10:40:43.773Z,1.20
2023-01-18T10:43:20.418Z,1.30
2023-01-18T10:45:48.314Z,0.83
2023-01-18T10:48:17.257Z,0.90
2023-01-18T10:51:06.966Z,1.30
2023-01-18T10:53:37.175Z,0.60
2023-01-18T10:56:21.101Z,0.60
2023-01-18T10:58:51.562Z,0.90
2023-01-18T11:01:35.172Z,0.77
2023-01-18T11:04:19.235Z,0.90
2023-01-18T11:06:53.624Z,0.97
2023-01-18T11:09:41.928Z,0.70
2023-01-18T11:12:34.968Z,0.70
2023-01-18T11:15:15.831Z,1.03
2023-01-18T11:17:50.462Z,0.80
2023-01-18T11:20:21.886Z,0.90
2023-01-18T11:23:01.728Z,0.60
2023-01-18T11:25:51.862Z,0.63
2023-01-18T11:28:23.805Z,0.77
2023-01-18T11:31:06.701Z,0.60
2023-01-18T11:34:06.236Z,0.60
2023-01-18T11:36:40.432Z,0.63
2023-01-18T11:39:27.698Z,0.43
2023-01-18T11:42:22.661Z,0.77
2023-01-18T11:45:18.870Z,0.90
2023-01-18T11:48:10.229Z,0.53
2023-01-18T11:50:54.112Z,0.70
2023-01-18T11:53:41.629Z,1.20
2023-01-18T11:56:15.272Z,0.70
2023-01-18T11:58:42.925Z,0.67
2023-01-18T12:01:35.294Z,0.47
2023-01-18T12:04:41.203Z,0.67
2023-01-18T12:07:36.463Z,0.50
2023-01-18T12:10:10.632Z,0.60
2023-01-18T12:12:41.721Z,0.80
2023-01-18T12:15:43.791Z,0.60
2023-01-18T12:18:42.715Z,0.60
2023-01-18T12:21:31.113Z,0.77
2023-01-18T12:24:25.197Z,0.70
2023-01-18T12:26:58.108Z,0.40
2023-01-18T12:29:49.108Z,0.83
2023-01-18T12:32:26.916Z,0.43
2023-01-18T12:35:10.040Z,0.63
2023-01-18T12:37:58.391Z,0.40
2023-01-18T12:40:45.114Z,0.50
2023-01-18T12:43:42.768Z,0.47
2023-01-18T12:46:15.888Z,0.60
2023-01-18T12:48:54.582Z,0.70
2023-01-18T12:51:25.922Z,0.40
2023-01-18T12:54:18.942Z,0.60
2023-01-18T12:56:52.706Z,0.60
2023-01-18T12:59:24.195Z,0.53
2023-01-18T13:01:57.500Z,0.60
2023-01-18T13:04:35.469Z,0.60
2023-01-18T13:07:07.330Z,0.63
2023-01-18T13:09:42.185Z,0.43
2023-01-18T13:12:12.812Z,0.63
2023-01-18T13:14:55.699Z,0.30
2023-01-18T13:17:39.996Z,0.93
2023-01-18T13:20:23.190Z,0.40
2023-01-18T13:23:25.038Z,0.80
2023-01-18T13:26:21.769Z,0.70
2023-01-18T13:29:25.857Z,1.10
2023-01-18T13:31:53.069Z,0.50
2023-01-18T13:34:44.939Z,0.67
2023-01-18T13:37:41.870Z,0.30
2023-01-18T13:40:23.818Z,0.80
2023-01-18T13:42:52.211Z,0.70
2023-01-18T13:45:24.848Z,0.57
2023-01-18T13:48:02.062Z,0.70
2023-01-18T13:50:29.219Z,0.60
2023-01-18T13:53:13.987Z,0.80
2023-01-18T13:55:53.047Z,0.50
2023-01-18T13:58:28.512Z,0.60
2023-01-18T14:01:00.126Z,0.80
2023-01-18T14:03:32.983Z,0.70
2023-01-18T14:06:09.130Z,0.90
2023-01-18T14:08:41.133Z,0.53
2023-01-18T14:11:14.582Z,0.77
2023-01-18T14:13:45.244Z,0.50
2023-01-18T14:16:18.558Z,0.70
2023-01-18T14:18:55.652Z,0.80
2023-01-18T14:21:42.098Z,0.60
2023-01-18T14:24:42.707Z,0.70
2023-01-18T14:27:18.301Z,0.43
2023-01-18T14:29:49.911Z,0.40
2023-01-18T14:32:27.446Z,0.57
2023-01-18T14:35:04.974Z,0.83
2023-01-18T14:37:35.530Z,1.40
2023-01-18T14:40:27.910Z,0.80
2023-01-18T14:43:02.138Z,0.70
2023-01-18T14:45:32.554Z,0.80
2023-01-18T14:48:09.893Z,0.57
2023-01-18T14:50:45.946Z,0.73
2023-01-18T14:53:20.175Z,0.80
2023-01-18T14:56:05.871Z,0.63
2023-01-18T14:58:43.729Z,0.70
2023-01-18T15:01:39.207Z,0.73
2023-01-18T15:04:24.928Z,0.83
2023-01-18T15:06:55.275Z,0.70
2023-01-18T15:09:27.956Z,1.27
2023-01-18T15:12:02.043Z,1.00
2023-01-18T15:14:33.392Z,0.67
2023-01-18T15:17:06.249Z,1.93
2023-01-18T15:19:46.908Z,1.60
2023-01-18T15:22:17.555Z,1.23
2023-01-18T15:24:47.471Z,1.17
2023-01-18T15:27:17.901Z,1.30
2023-01-18T15:29:53.943Z,1.60
2023-01-18T15:32:24.310Z,1.27
2023-01-18T15:34:55.084Z,1.10
2023-01-18T15:37:31.166Z,1.33
2023-01-18T15:40:21.427Z,0.83
2023-01-18T15:43:09.020Z,0.80
2023-01-18T15:45:40.383Z,0.80
2023-01-18T15:48:22.456Z,0.90
2023-01-18T15:50:55.032Z,0.80
2023-01-18T15:53:28.651Z,1.40
2023-01-18T15:55:58.633Z,1.30
2023-01-18T15:58:36.694Z,1.13
2023-01-18T16:01:10.689Z,0.73
2023-01-18T16:03:45.997Z,1.10
2023-01-18T16:06:17.059Z,1.00
2023-01-18T16:09:12.057Z,0.60
2023-01-18T16:11:56.560Z,0.90
2023-01-18T16:14:33.805Z,0.83
2023-01-18T16:17:20.063Z,0.90
2023-01-18T16:19:51.361Z,1.10
2023-01-18T16:22:29.325Z,1.20
2023-01-18T16:25:01.467Z,1.37
2023-01-18T16:27:31.372Z,1.27
2023-01-18T16:30:02.585Z,1.23
2023-01-18T16:32:32.785Z,0.90
2023-01-18T16:35:22.464Z,1.40
2023-01-18T16:37:52.166Z,1.63
2023-01-18T16:40:23.305Z,1.30
2023-01-18T16:42:54.463Z,1.70
2023-01-18T16:45:22.839Z,1.10
2023-01-18T16:47:51.122Z,2.50
2023-01-18T16:50:19.938Z,1.50
2023-01-18T16:52:48.128Z,1.70
2023-01-18T16:55:18.180Z,1.53
2023-01-18T16:57:46.626Z,1.90
2023-01-18T17:00:23.173Z,1.27
2023-01-18T17:02:53.351Z,1.17
2023-01-18T17:05:21.182Z,1.33
2023-01-18T17:07:50.745Z,2.07
2023-01-18T17:10:29.055Z,1.20
2023-01-18T17:12:58.894Z,1.60
2023-01-18T17:15:29.976Z,1.03
2023-01-18T17:17:58.937Z,1.10
2023-01-18T17:20:27.898Z,1.27
2023-01-18T17:22:55.955Z,1.43
2023-01-18T17:25:24.445Z,1.53
2023-01-18T17:27:55.975Z,0.90
2023-01-18T17:30:25.809Z,1.20
2023-01-18T17:32:53.506Z,1.00
2023-01-18T17:35:23.664Z,1.40
2023-01-18T17:37:57.404Z,0.93
2023-01-18T17:40:40.141Z,1.53
2023-01-18T17:43:36.570Z,1.30
2023-01-18T17:46:06.313Z,1.47
2023-01-18T17:48:34.592Z,1.30
2023-01-18T17:51:09.030Z,1.80
2023-01-18T17:53:39.508Z,1.40
2023-01-18T17:56:13.452Z,1.57
2023-01-18T17:58:45.864Z,1.57
2023-01-18T18:01:16.076Z,1.20
2023-01-18T18:03:47.801Z,3.77
2023-01-18T18:06:26.144Z,1.70
2023-01-18T18:08:59.838Z,1.10
2023-01-18T18:11:29.323Z,1.57
2023-01-18T18:13:59.329Z,3.20
2023-01-18T18:16:28.517Z,1.50
2023-01-18T18:18:58.191Z,1.80
2023-01-18T18:21:27.256Z,1.83
2023-01-18T18:23:54.991Z,1.63
2023-01-18T18:26:22.616Z,5.27
2023-01-18T18:28:50.971Z,2.07
2023-01-18T18:31:21.266Z,1.57
2023-01-18T18:33:48.895Z,3.37
2023-01-18T18:36:17.293Z,2.87
2023-01-18T18:38:45.032Z,2.30
2023-01-18T18:41:13.361Z,2.00
2023-01-18T18:43:40.978Z,2.00
2023-01-18T18:46:08.696Z,1.27
2023-01-18T18:48:37.340Z,1.53
2023-01-18T18:51:05.067Z,2.60
2023-01-18T18:53:38.677Z,2.47
2023-01-18T18:56:10.323Z,1.83
2023-01-18T18:58:40.738Z,1.73
2023-01-18T19:01:23.233Z,2.37
2023-01-18T19:03:52.519Z,2.27
2023-01-18T19:06:23.537Z,1.70
2023-01-18T19:08:52.112Z,1.60
2023-01-18T19:11:20.799Z,1.90
2023-01-18T19:13:49.583Z,1.83
2023-01-18T19:16:18.301Z,1.87
2023-01-18T19:18:46.014Z,2.80
2023-01-18T19:21:14.416Z,2.00
2023-01-18T19:23:43.465Z,2.03
2023-01-18T19:26:12.974Z,1.93
2023-01-18T19:28:42.060Z,1.37
2023-01-18T19:31:11.869Z,1.50
2023-01-18T19:33:42.435Z,1.90
2023-01-18T19:36:15.116Z,10.10
2023-01-18T19:38:47.301Z,7.47
2023-01-18T19:41:19.784Z,3.40
2023-01-18T19:43:51.201Z,3.70
2023-01-18T19:46:20.250Z,1.83
2023-01-18T19:48:49.170Z,5.77
2023-01-18T19:51:22.381Z,7.63
2023-01-18T19:53:53.521Z,4.03
2023-01-18T19:56:22.443Z,1.67
2023-01-18T19:58:52.091Z,2.03
2023-01-18T20:01:35.231Z,1.70
2023-01-18T20:04:06.161Z,1.30
2023-01-18T20:06:35.297Z,1.83
2023-01-18T20:09:07.438Z,2.37
2023-01-18T20:11:37.544Z,1.60
2023-01-18T20:14:05.293Z,1.87
2023-01-18T20:16:32.973Z,1.73
2023-01-18T20:19:00.609Z,3.10
2023-01-18T20:21:29.735Z,4.93
2023-01-18T20:23:58.797Z,1.83
2023-01-18T20:26:36.760Z,1.67
2023-01-18T20:29:08.724Z,1.57
2023-01-18T20:31:38.284Z,3.73
2023-01-18T20:34:07.218Z,0.87
2023-01-18T20:36:36.702Z,0.93
2023-01-18T20:39:06.293Z,1.47
2023-01-18T20:41:33.934Z,2.50
2023-01-18T20:44:02.980Z,1.43
2023-01-18T20:46:32.876Z,2.57
2023-01-18T20:49:03.477Z,10.43
2023-01-18T20:51:33.507Z,2.93
2023-01-18T20:54:02.265Z,5.00
2023-01-18T20:56:32.085Z,2.00
2023-01-18T20:59:01.231Z,2.43
2023-01-18T21:01:32.805Z,3.20
2023-01-18T21:04:03.169Z,2.50
2023-01-18T21:06:32.171Z,2.37
2023-01-18T21:09:01.098Z,1.80
2023-01-18T21:11:28.520Z,1.50
2023-01-18T21:13:59.027Z,1.70
2023-01-18T21:16:27.697Z,1.57
2023-01-18T21:18:59.036Z,1.50
2023-01-18T21:21:29.126Z,1.30
2023-01-18T21:23:57.788Z,1.40
2023-01-18T21:26:25.503Z,1.10
2023-01-18T21:28:52.518Z,1.63
2023-01-18T21:31:23.440Z,1.27
2023-01-18T21:33:54.409Z,1.27
2023-01-18T21:36:23.112Z,1.07
2023-01-18T21:38:51.232Z,2.10
2023-01-18T21:41:38.418Z,1.50
2023-01-18T21:44:24.403Z,3.87
2023-01-18T21:46:53.488Z,1.37
2023-01-18T21:50:11.391Z,2.73
2023-01-18T21:52:48.882Z,3.37
2023-01-18T21:55:17.761Z,2.10
2023-01-18T21:57:45.805Z,1.97
2023-01-18T22:00:14.567Z,1.20
2023-01-18T22:02:42.974Z,1.50
2023-01-18T22:05:13.855Z,1.20
2023-01-18T22:07:42.759Z,1.40
2023-01-18T22:10:10.218Z,1.83
2023-01-18T22:12:39.195Z,2.00
2023-01-18T22:15:07.351Z,1.10
2023-01-18T22:17:37.391Z,1.10
2023-01-18T22:20:04.677Z,1.17
2023-01-18T22:22:33.086Z,1.30
2023-01-18T22:25:02.288Z,1.40
2023-01-18T22:27:30.429Z,1.20
2023-01-18T22:29:59.619Z,1.40
2023-01-18T22:32:27.339Z,2.03
2023-01-18T22:34:56.491Z,2.10
2023-01-18T22:37:25.915Z,1.73
2023-01-18T22:39:53.649Z,1.70
2023-01-18T22:42:20.650Z,1.27
2023-01-18T22:44:49.170Z,1.57
2023-01-18T22:47:19.622Z,1.50
2023-01-18T22:49:47.255Z,1.17
2023-01-18T22:52:14.938Z,1.07
2023-01-18T22:54:43.951Z,1.50
2023-01-18T22:57:13.283Z,1.43
2023-01-18T22:59:42.314Z,1.47
2023-01-18T23:02:10.664Z,1.20
2023-01-18T23:04:38.921Z,1.43
2023-01-18T23:07:08.033Z,1.20
2023-01-18T23:09:36.361Z,1.20
2023-01-18T23:12:04.332Z,1.10
2023-01-18T23:14:50.555Z,1.30
2023-01-18T23:17:37.127Z,1.37
2023-01-18T23:20:10.497Z,1.70
2023-01-18T23:22:38.946Z,1.47
2023-01-18T23:25:07.758Z,1.20
2023-01-18T23:27:36.037Z,1.30
2023-01-18T23:30:04.297Z,1.43
2023-01-18T23:32:36.303Z,1.70
2023-01-18T23:35:05.771Z,1.97
2023-01-18T23:37:33.564Z,1.37
2023-01-18T23:40:22.489Z,1.40
2023-01-18T23:43:12.283Z,2.10
2023-01-18T23:45:59.243Z,1.37
2023-01-18T23:48:46.026Z,1.27
2023-01-18T23:51:34.523Z,1.10
2023-01-18T23:54:16.901Z,1.10
2023-01-18T23:56:46.607Z,1.50
2023-01-18T23:59:15.075Z,1.47
